| Date | Time | Temp. (oF) | Dew Point (oF) | Rel. Hum. (%) | Press. (in.) | Wind Dir. | Wind Speed (mph) | Hourly Rainfall (in.) |
|
|---|---|---|---|---|---|---|---|---|---|
| 1 | 04/28 | 00:00 | 53 | 39 | 61 | 29.84 | WSW | 6 | 0.00 |
| 2 | 04/27 | 23:00 | 54 | 38 | 56 | 29.81 | WNW | 2 | 0.00 |
| 3 | 04/27 | 22:00 | 55 | 38 | 54 | 29.79 | WSW | 3 | 0.00 |
| 4 | 04/27 | 21:00 | 58 | 39 | 50 | 29.76 | WNW | 2 | 0.00 |
| 5 | 04/27 | 20:00 | 61 | 39 | 45 | 29.74 | WNW | 4 | 0.00 |
| 6 | 04/27 | 19:00 | 64 | 40 | 43 | 29.71 | WNW | 6 | 0.00 |
| 7 | 04/27 | 18:00 | 64 | 41 | 44 | 29.70 | NW | 5 | 0.00 |
| 8 | 04/27 | 17:00 | 67 | 42 | 41 | 29.67 | WNW | 4 | 0.00 |
| 9 | 04/27 | 16:00 | 67 | 42 | 42 | 29.67 | WNW | 9 | 0.00 |
| 10 | 04/27 | 15:00 | 67 | 46 | 48 | 29.68 | NW | 9 | 0.00 |
| 11 | 04/27 | 14:00 | 65 | 50 | 59 | 29.69 | SW | 6 | 0.00 |
| 12 | 04/27 | 13:00 | 65 | 50 | 60 | 29.69 | NW | 2 | 0.00 |
| 13 | 04/27 | 12:00 | 64 | 52 | 67 | 29.71 | WSW | 5 | 0.00 |
| 14 | 04/27 | 11:00 | 61 | 51 | 70 | 29.71 | NNW | 5 | 0.00 |
| 15 | 04/27 | 10:00 | 60 | 56 | 87 | 29.72 | NW | 4 | 0.00 |
| 16 | 04/27 | 09:00 | 57 | 56 | 99 | 29.72 | S | 4 | 0.00 |
| 17 | 04/27 | 08:00 | 55 | 54 | 100 | 29.72 | SSE | 1 | 0.00 |
| 18 | 04/27 | 07:00 | 54 | 54 | 100 | 29.73 | SW | 2 | 0.00 |
| 19 | 04/27 | 06:00 | 54 | 54 | 100 | 29.74 | SSE | 2 | 0.00 |
| 20 | 04/27 | 05:00 | 54 | 53 | 99 | 29.73 | SSE | 3 | 0.00 |
| 21 | 04/27 | 04:00 | 53 | 52 | 98 | 29.73 | SSE | 1 | 0.00 |
| 22 | 04/27 | 03:00 | 54 | 52 | 95 | 29.74 | SSE | 4 | 0.02 |
| 23 | 04/27 | 02:00 | 55 | 52 | 90 | 29.75 | S | 2 | 0.02 |
| 24 | 04/27 | 01:00 | 56 | 51 | 84 | 29.77 | S | 9 | 0.01 |